createdAt,value
2018-12-26T00:02:33.778Z,101822.92
2018-12-26T00:05:08.207Z,101821.88
2018-12-26T00:07:42.437Z,101830.48
2018-12-26T00:10:15.460Z,101823.41
2018-12-26T00:12:49.714Z,101818.48
2018-12-26T00:15:22.727Z,101812.86
2018-12-26T00:17:57.717Z,101812.02
2018-12-26T00:20:32.298Z,101816.98
2018-12-26T00:23:07.735Z,101819.73
2018-12-26T00:25:40.992Z,101817.99
2018-12-26T00:28:14.271Z,101819.18
2018-12-26T00:30:47.711Z,101807.38
2018-12-26T00:33:20.864Z,101803.89
2018-12-26T00:35:54.702Z,101803.86
2018-12-26T00:38:29.696Z,101800.55
2018-12-26T00:41:03.559Z,101802.48
2018-12-26T00:43:37.053Z,101789.57
2018-12-26T00:46:09.979Z,101789.55
2018-12-26T00:48:43.830Z,101790.31
2018-12-26T00:51:17.477Z,101785.08
2018-12-26T00:53:50.382Z,101785.68
2018-12-26T00:56:24.049Z,101782.47
2018-12-26T00:58:59.695Z,101781.28
2018-12-26T01:01:32.616Z,101781.05
2018-12-26T01:04:08.279Z,101777.44
2018-12-26T01:06:42.777Z,101768.20
2018-12-26T01:09:16.719Z,101766.66
2018-12-26T01:11:54.075Z,101773.34
2018-12-26T01:14:27.018Z,101771.63
2018-12-26T01:16:59.819Z,101771.16
2018-12-26T01:19:33.867Z,101780.65
2018-12-26T01:22:07.654Z,101771.78
2018-12-26T01:24:41.103Z,101772.87
2018-12-26T01:27:14.057Z,101768.40
2018-12-26T01:29:47.356Z,101773.56
2018-12-26T01:32:22.443Z,101770.39
2018-12-26T01:34:56.228Z,101766.51
2018-12-26T01:37:29.041Z,101761.51
2018-12-26T01:40:03.865Z,101750.81
2018-12-26T01:42:36.656Z,101755.74
2018-12-26T01:45:09.709Z,101749.13
2018-12-26T01:47:45.752Z,101750.25
2018-12-26T01:50:19.722Z,101760.06
2018-12-26T01:52:54.796Z,101761.17
2018-12-26T01:55:30.668Z,101767.75
2018-12-26T01:58:03.464Z,101765.77
2018-12-26T02:00:37.003Z,101762.16
2018-12-26T02:03:11.420Z,101754.23
2018-12-26T02:05:44.780Z,101750.64
2018-12-26T02:08:19.420Z,101745.06
2018-12-26T02:10:52.887Z,101745.04
2018-12-26T02:13:26.651Z,101749.73
2018-12-26T02:16:00.620Z,101746.27
2018-12-26T02:18:34.059Z,101746.39
2018-12-26T02:21:07.296Z,101752.06
2018-12-26T02:23:40.814Z,101750.96
2018-12-26T02:26:14.638Z,101744.80
2018-12-26T02:28:48.011Z,101737.77
2018-12-26T02:31:22.630Z,101728.30
2018-12-26T02:34:00.814Z,101730.24
2018-12-26T02:36:34.946Z,101735.11
2018-12-26T02:39:09.424Z,101737.90
2018-12-26T02:41:42.853Z,101737.61
2018-12-26T02:44:16.761Z,101740.75
2018-12-26T02:46:49.909Z,101733.69
2018-12-26T02:49:23.285Z,101735.37
2018-12-26T02:51:56.499Z,101732.75
2018-12-26T02:54:29.437Z,101733.97
2018-12-26T02:57:02.837Z,101734.08
2018-12-26T02:59:37.367Z,101731.03
2018-12-26T03:02:10.350Z,101727.19
2018-12-26T03:04:43.697Z,101730.75
2018-12-26T03:07:16.673Z,101734.81
2018-12-26T03:09:49.591Z,101727.09
2018-12-26T03:12:23.659Z,101724.17
2018-12-26T03:14:56.599Z,101721.13
2018-12-26T03:17:35.362Z,101717.65
2018-12-26T03:20:08.160Z,101718.29
2018-12-26T03:22:41.160Z,101714.07
2018-12-26T03:25:14.425Z,101710.59
2018-12-26T03:27:47.332Z,101710.86
2018-12-26T03:30:20.692Z,101710.50
2018-12-26T03:32:54.032Z,101705.73
2018-12-26T03:35:26.889Z,101694.45
2018-12-26T03:38:01.019Z,101692.48
2018-12-26T03:40:35.035Z,101684.16
2018-12-26T03:43:07.978Z,101687.80
2018-12-26T03:45:41.454Z,101690.67
2018-12-26T03:48:14.653Z,101689.09
2018-12-26T03:50:48.003Z,101685.74
2018-12-26T03:53:21.316Z,101687.45
2018-12-26T03:55:54.618Z,101690.19
2018-12-26T03:58:27.852Z,101685.41
2018-12-26T04:01:01.327Z,101692.19
2018-12-26T04:03:34.255Z,101695.45
2018-12-26T04:06:07.276Z,101696.55
2018-12-26T04:08:40.620Z,101691.32
2018-12-26T04:11:13.425Z,101690.52
2018-12-26T04:13:46.800Z,101691.44
2018-12-26T04:16:20.325Z,101692.20
2018-12-26T04:18:53.283Z,101687.85
2018-12-26T04:21:26.529Z,101682.28
2018-12-26T04:23:59.975Z,101683.99
2018-12-26T04:26:32.803Z,101682.72
2018-12-26T04:29:05.806Z,101688.15
2018-12-26T04:31:40.490Z,101685.23
2018-12-26T04:34:15.017Z,101685.14
2018-12-26T04:36:48.049Z,101676.83
2018-12-26T04:39:22.643Z,101673.24
2018-12-26T04:41:55.631Z,101669.28
2018-12-26T04:44:28.482Z,101669.28
2018-12-26T04:47:01.921Z,101668.09
2018-12-26T04:49:34.840Z,101665.33
2018-12-26T04:52:07.725Z,101659.81
2018-12-26T04:54:41.060Z,101666.47
2018-12-26T04:57:13.861Z,101678.79
2018-12-26T04:59:46.829Z,101668.59
2018-12-26T05:02:21.104Z,101673.73
2018-12-26T05:04:54.115Z,101674.27
2018-12-26T05:07:27.087Z,101669.97
2018-12-26T05:10:00.444Z,101675.36
2018-12-26T05:12:33.475Z,101680.09
2018-12-26T05:15:07.856Z,101686.98
2018-12-26T05:17:42.339Z,101684.31
2018-12-26T05:20:15.309Z,101685.03
2018-12-26T05:22:48.735Z,101692.93
2018-12-26T05:25:22.060Z,101690.08
2018-12-26T05:27:54.996Z,101693.97
2018-12-26T05:30:27.860Z,101688.22
2018-12-26T05:33:01.934Z,101680.19
2018-12-26T05:35:34.848Z,101680.10
2018-12-26T05:38:07.701Z,101681.65
2018-12-26T05:40:41.267Z,101688.50
2018-12-26T05:43:14.313Z,101692.21
2018-12-26T05:45:47.912Z,101693.50
2018-12-26T05:48:21.263Z,101693.15
2018-12-26T05:50:54.322Z,101691.58
2018-12-26T05:53:27.267Z,101694.13
2018-12-26T05:56:02.652Z,101691.84
2018-12-26T05:58:35.681Z,101684.55
2018-12-26T06:01:08.715Z,101687.13
2018-12-26T06:03:42.100Z,101690.58
2018-12-26T06:06:16.665Z,101691.05
2018-12-26T06:08:49.656Z,101699.44
2018-12-26T06:11:24.155Z,101690.77
2018-12-26T06:13:57.042Z,101692.59
2018-12-26T06:16:30.107Z,101687.47
2018-12-26T06:19:03.449Z,101693.63
2018-12-26T06:21:36.411Z,101692.69
2018-12-26T06:24:09.195Z,101699.50
2018-12-26T06:26:42.648Z,101701.20
2018-12-26T06:29:15.583Z,101697.84
2018-12-26T06:31:48.593Z,101694.23
2018-12-26T06:34:22.959Z,101693.23
2018-12-26T06:36:55.960Z,101695.59
2018-12-26T06:39:29.635Z,101689.97
2018-12-26T06:42:03.180Z,101691.09
2018-12-26T06:44:36.180Z,101691.00
2018-12-26T06:47:09.101Z,101686.67
2018-12-26T06:49:45.292Z,101689.39
2018-12-26T06:52:18.360Z,101688.95
2018-12-26T06:54:51.219Z,101683.44
2018-12-26T06:57:25.607Z,101684.70
2018-12-26T06:59:58.611Z,101688.88
2018-12-26T07:02:31.544Z,101681.72
2018-12-26T07:05:04.956Z,101675.34
2018-12-26T07:07:38.879Z,101680.28
2018-12-26T07:10:12.923Z,101680.73
2018-12-26T07:12:46.374Z,101685.64
2018-12-26T07:15:19.228Z,101695.15
2018-12-26T07:17:56.816Z,101699.16
2018-12-26T07:20:30.801Z,101701.62
2018-12-26T07:23:03.664Z,101703.06
2018-12-26T07:25:37.408Z,101700.77
2018-12-26T07:28:11.883Z,101704.77
2018-12-26T07:30:44.899Z,101696.25
2018-12-26T07:33:18.081Z,101697.75
2018-12-26T07:35:51.504Z,101701.96
2018-12-26T07:38:24.435Z,101704.27
2018-12-26T07:40:57.573Z,101700.90
2018-12-26T07:43:31.006Z,101698.20
2018-12-26T07:46:04.018Z,101696.36
2018-12-26T07:48:36.928Z,101695.09
2018-12-26T07:51:11.669Z,101699.52
2018-12-26T07:53:44.531Z,101703.05
2018-12-26T07:56:17.361Z,101710.11
2018-12-26T07:58:50.724Z,101712.88
2018-12-26T08:01:23.704Z,101710.52
2018-12-26T08:03:56.665Z,101706.44
2018-12-26T08:06:31.070Z,101709.34
2018-12-26T08:09:06.239Z,101710.55
2018-12-26T08:11:40.000Z,101712.95
2018-12-26T08:14:13.599Z,101716.74
2018-12-26T08:16:47.479Z,101713.99
2018-12-26T08:19:21.413Z,101715.13
2018-12-26T08:21:55.775Z,101720.66
2018-12-26T08:24:28.806Z,101720.84
2018-12-26T08:27:02.032Z,101721.05
2018-12-26T08:29:37.137Z,101722.27
2018-12-26T08:32:10.000Z,101722.69
2018-12-26T08:34:43.484Z,101730.70
2018-12-26T08:37:17.772Z,101725.28
2018-12-26T08:39:50.862Z,101714.60
2018-12-26T08:42:26.827Z,101719.00
2018-12-26T08:45:03.624Z,101714.87
2018-12-26T08:47:37.308Z,101712.31
2018-12-26T08:50:14.140Z,101705.41
2018-12-26T08:52:47.063Z,101713.88
2018-12-26T08:55:24.479Z,101715.01
2018-12-26T08:57:59.354Z,101715.30
2018-12-26T09:00:32.414Z,101718.36
2018-12-26T09:03:06.139Z,101721.30
2018-12-26T09:05:39.710Z,101724.04
2018-12-26T09:08:13.127Z,101729.77
2018-12-26T09:10:47.025Z,101728.80
2018-12-26T09:13:21.384Z,101727.00
2018-12-26T09:15:55.603Z,101731.15
2018-12-26T09:18:30.265Z,101739.17
2018-12-26T09:21:03.274Z,101740.58
2018-12-26T09:23:39.414Z,101738.31
2018-12-26T09:26:13.998Z,101735.55
2018-12-26T09:28:47.181Z,101736.20
2018-12-26T09:31:20.676Z,101730.70
2018-12-26T09:33:54.641Z,101733.52
2018-12-26T09:36:34.422Z,101729.23
2018-12-26T09:39:08.962Z,101734.72
2018-12-26T09:41:43.209Z,101733.89
2018-12-26T09:44:17.978Z,101729.08
2018-12-26T09:46:50.977Z,101737.50
2018-12-26T09:49:23.922Z,101733.30
2018-12-26T09:51:58.443Z,101739.91
2018-12-26T09:54:32.889Z,101727.14
2018-12-26T09:57:06.056Z,101718.89
2018-12-26T09:59:40.263Z,101722.13
2018-12-26T10:02:13.564Z,101726.08
2018-12-26T10:04:46.795Z,101727.80
2018-12-26T10:07:22.562Z,101710.39
2018-12-26T10:09:57.613Z,101711.66
2018-12-26T10:12:32.716Z,101713.59
2018-12-26T10:15:09.064Z,101710.28
2018-12-26T10:17:42.108Z,101706.16
2018-12-26T10:20:16.506Z,101698.11
2018-12-26T10:22:50.466Z,101695.57
2018-12-26T10:25:23.909Z,101694.73
2018-12-26T10:27:57.929Z,101692.47
2018-12-26T10:30:33.395Z,101693.37
2018-12-26T10:33:07.171Z,101694.48
2018-12-26T10:35:41.190Z,101702.47
2018-12-26T10:38:19.940Z,101697.06
2018-12-26T10:40:53.719Z,101697.33
2018-12-26T10:43:27.591Z,101700.83
2018-12-26T10:46:00.786Z,101698.23
2018-12-26T10:48:35.057Z,101704.86
2018-12-26T10:51:08.297Z,101704.79
2018-12-26T10:53:42.079Z,101704.18
2018-12-26T10:56:16.856Z,101696.50
2018-12-26T10:58:50.379Z,101691.92
2018-12-26T11:01:26.158Z,101690.70
2018-12-26T11:04:00.520Z,101686.61
2018-12-26T11:06:37.086Z,101683.78
2018-12-26T11:09:09.996Z,101680.16
2018-12-26T11:11:43.457Z,101680.64
2018-12-26T11:14:17.073Z,101670.71
2018-12-26T11:16:51.946Z,101664.02
2018-12-26T11:19:27.304Z,101660.25
2018-12-26T11:22:00.304Z,101652.23
2018-12-26T11:24:34.013Z,101656.87
2018-12-26T11:27:08.507Z,101650.87
2018-12-26T11:29:42.477Z,101644.41
2018-12-26T11:32:15.402Z,101645.42
2018-12-26T11:34:49.765Z,101641.47
2018-12-26T11:37:24.395Z,101637.28
2018-12-26T11:39:58.570Z,101637.86
2018-12-26T11:42:33.996Z,101639.12
2018-12-26T11:45:08.080Z,101635.51
2018-12-26T11:47:45.624Z,101627.66
2018-12-26T11:50:22.463Z,101627.48
2018-12-26T11:52:56.189Z,101627.16
2018-12-26T11:55:29.584Z,101626.24
2018-12-26T11:58:04.965Z,101623.42
2018-12-26T12:00:37.897Z,101621.20
2018-12-26T12:03:12.213Z,101618.70
2018-12-26T12:05:47.583Z,101618.80
2018-12-26T12:08:21.077Z,101608.31
2018-12-26T12:10:54.396Z,101609.90
2018-12-26T12:13:29.908Z,101615.12
2018-12-26T12:16:06.342Z,101612.35
2018-12-26T12:18:42.755Z,101614.31
2018-12-26T12:21:18.245Z,101615.98
2018-12-26T12:23:52.321Z,101616.31
2018-12-26T12:26:28.379Z,101610.67
2018-12-26T12:29:03.890Z,101608.49
2018-12-26T12:31:38.743Z,101609.02
2018-12-26T12:34:15.554Z,101610.54
2018-12-26T12:36:50.259Z,101602.91
2018-12-26T12:39:24.615Z,101610.00
2018-12-26T12:42:01.123Z,101605.72
2018-12-26T12:44:34.311Z,101609.02
2018-12-26T12:47:08.366Z,101599.75
2018-12-26T12:49:42.995Z,101601.26
2018-12-26T12:52:17.901Z,101597.70
2018-12-26T12:54:50.935Z,101592.70
2018-12-26T12:57:26.195Z,101594.89
2018-12-26T13:00:06.782Z,101589.20
2018-12-26T13:02:41.324Z,101592.35
2018-12-26T13:05:16.735Z,101589.17
2018-12-26T13:07:52.275Z,101590.11
2018-12-26T13:10:29.327Z,101593.19
2018-12-26T13:13:03.388Z,101591.33
2018-12-26T13:15:40.503Z,101586.03
2018-12-26T13:18:15.450Z,101581.29
2018-12-26T13:20:49.947Z,101577.42
2018-12-26T13:23:24.158Z,101579.23
2018-12-26T13:25:58.443Z,101567.03
2018-12-26T13:28:33.829Z,101563.20
2018-12-26T13:31:07.545Z,101569.91
2018-12-26T13:33:40.721Z,101564.17
2018-12-26T13:36:15.588Z,101562.30
2018-12-26T13:38:50.506Z,101565.65
2018-12-26T13:41:29.486Z,101567.39
2018-12-26T13:44:04.663Z,101565.78
2018-12-26T13:46:38.713Z,101562.37
2018-12-26T13:49:12.870Z,101557.08
2018-12-26T13:51:46.169Z,101559.94
2018-12-26T13:54:19.935Z,101562.50
2018-12-26T13:56:52.872Z,101566.80
2018-12-26T13:59:26.634Z,101566.97
2018-12-26T14:02:00.865Z,101566.19
2018-12-26T14:04:35.839Z,101563.08
2018-12-26T14:07:09.937Z,101565.31
2018-12-26T14:09:44.569Z,101557.73
2018-12-26T14:12:22.396Z,101563.16
2018-12-26T14:14:55.446Z,101563.70
2018-12-26T14:17:28.837Z,101557.86
2018-12-26T14:20:02.139Z,101557.72
2018-12-26T14:22:36.986Z,101557.30
2018-12-26T14:25:16.004Z,101549.61
2018-12-26T14:27:49.935Z,101547.91
2018-12-26T14:30:22.976Z,101545.93
2018-12-26T14:32:57.979Z,101546.88
2018-12-26T14:35:33.120Z,101547.16
2018-12-26T14:38:07.037Z,101546.88
2018-12-26T14:40:41.608Z,101545.19
2018-12-26T14:43:16.637Z,101547.53
2018-12-26T14:45:51.458Z,101546.77
2018-12-26T14:48:25.200Z,101548.83
2018-12-26T14:50:58.373Z,101552.89
2018-12-26T14:53:31.449Z,101550.87
2018-12-26T14:56:07.557Z,101546.67
2018-12-26T14:58:41.950Z,101550.26
2018-12-26T15:01:15.225Z,101551.22
2018-12-26T15:03:49.130Z,101554.38
2018-12-26T15:06:22.361Z,101554.65
2018-12-26T15:08:55.564Z,101552.68
2018-12-26T15:11:29.829Z,101552.34
2018-12-26T15:14:03.643Z,101553.88
2018-12-26T15:16:37.185Z,101556.45
2018-12-26T15:19:22.925Z,101550.42
2018-12-26T15:21:56.524Z,101551.81
2018-12-26T15:24:30.778Z,101548.89
2018-12-26T15:27:03.927Z,101547.48
2018-12-26T15:29:37.777Z,101548.86
2018-12-26T15:32:15.521Z,101547.41
2018-12-26T15:34:48.647Z,101549.08
2018-12-26T15:37:21.665Z,101551.23
2018-12-26T15:39:56.838Z,101555.72
2018-12-26T15:42:30.485Z,101554.30
2018-12-26T15:45:07.359Z,101555.99
2018-12-26T15:47:40.722Z,101552.29
2018-12-26T15:50:14.605Z,101552.02
2018-12-26T15:52:49.255Z,101552.44
2018-12-26T15:55:23.881Z,101550.91
2018-12-26T15:57:57.541Z,101552.31
2018-12-26T16:00:37.382Z,101552.15
2018-12-26T16:03:13.268Z,101549.64
2018-12-26T16:05:46.904Z,101547.52
2018-12-26T16:08:20.272Z,101548.41
2018-12-26T16:10:57.641Z,101547.04
2018-12-26T16:13:35.135Z,101549.48
2018-12-26T16:16:09.385Z,101543.23
2018-12-26T16:18:43.838Z,101547.80
2018-12-26T16:21:19.294Z,101551.67
2018-12-26T16:23:54.554Z,101551.16
2018-12-26T16:26:32.680Z,101542.25
2018-12-26T16:29:05.971Z,101547.53
2018-12-26T16:31:40.749Z,101540.42
2018-12-26T16:34:15.780Z,101538.32
2018-12-26T16:36:48.848Z,101537.66
2018-12-26T16:39:23.351Z,101542.41
2018-12-26T16:41:58.957Z,101536.91
2018-12-26T16:44:33.884Z,101530.91
2018-12-26T16:47:07.450Z,101523.52
2018-12-26T16:49:40.557Z,101521.49
2018-12-26T16:52:15.603Z,101514.94
2018-12-26T16:54:52.890Z,101513.43
2018-12-26T16:57:28.743Z,101501.63
2018-12-26T17:00:06.262Z,101501.78
2018-12-26T17:02:39.234Z,101497.00
2018-12-26T17:05:13.199Z,101498.53
2018-12-26T17:07:46.465Z,101494.97
2018-12-26T17:10:22.634Z,101493.12
2018-12-26T17:12:55.626Z,101499.16
2018-12-26T17:15:29.871Z,101497.84
2018-12-26T17:18:04.943Z,101491.05
2018-12-26T17:20:38.129Z,101494.59
2018-12-26T17:23:12.297Z,101491.41
2018-12-26T17:25:46.602Z,101488.64
2018-12-26T17:28:20.224Z,101483.99
2018-12-26T17:31:03.893Z,101488.22
2018-12-26T17:33:38.525Z,101487.50
2018-12-26T17:36:12.475Z,101491.94
2018-12-26T17:38:45.315Z,101489.33
2018-12-26T17:41:18.384Z,101489.91
2018-12-26T17:43:52.266Z,101498.81
2018-12-26T17:46:26.391Z,101495.30
2018-12-26T17:49:01.314Z,101493.15
2018-12-26T17:51:35.646Z,101492.84
2018-12-26T17:54:57.453Z,101497.61
2018-12-26T17:57:42.211Z,101495.94
2018-12-26T18:00:47.316Z,101486.97
2018-12-26T18:03:21.243Z,101489.89
2018-12-26T18:05:54.866Z,101492.77
2018-12-26T18:08:29.913Z,101492.00
2018-12-26T18:11:06.080Z,101490.87
2018-12-26T18:13:39.458Z,101484.89
2018-12-26T18:16:13.744Z,101494.95
2018-12-26T18:18:50.410Z,101497.09
2018-12-26T18:21:25.407Z,101494.09
2018-12-26T18:23:59.892Z,101490.75
2018-12-26T18:26:34.474Z,101492.77
2018-12-26T18:29:07.415Z,101494.47
2018-12-26T18:34:27.038Z,101494.47
2018-12-26T18:37:00.292Z,101493.65
2018-12-26T18:39:34.344Z,101491.61
2018-12-26T18:42:07.434Z,101489.83
2018-12-26T18:44:40.794Z,101494.31
2018-12-26T18:47:13.745Z,101494.45
2018-12-26T18:49:52.955Z,101493.62
2018-12-26T18:52:26.877Z,101489.16
2018-12-26T18:55:01.379Z,101483.63
2018-12-26T18:57:35.485Z,101474.37
2018-12-26T19:00:20.488Z,101472.86
2018-12-26T19:03:00.759Z,101479.27
2018-12-26T19:05:34.892Z,101484.59
2018-12-26T19:08:10.605Z,101487.08
2018-12-26T19:10:46.205Z,101487.98
2018-12-26T19:13:21.713Z,101490.37
2018-12-26T19:15:59.636Z,101493.59
2018-12-26T19:18:33.862Z,101494.91
2018-12-26T19:21:08.254Z,101497.94
2018-12-26T19:23:41.961Z,101485.22
2018-12-26T19:26:15.870Z,101480.54
2018-12-26T19:28:50.182Z,101474.89
2018-12-26T19:31:25.910Z,101474.73
2018-12-26T19:33:58.930Z,101473.98
2018-12-26T19:36:34.294Z,101469.85
2018-12-26T19:39:09.054Z,101467.10
2018-12-26T19:41:43.288Z,101462.44
2018-12-26T19:44:17.082Z,101463.98
2018-12-26T19:46:54.551Z,101465.47
2018-12-26T19:49:29.180Z,101459.81
2018-12-26T19:52:02.786Z,101460.30
2018-12-26T19:54:36.594Z,101454.23
2018-12-26T19:57:10.482Z,101450.52
2018-12-26T19:59:47.901Z,101451.87
2018-12-26T20:02:23.390Z,101455.98
2018-12-26T20:04:57.800Z,101452.47
2018-12-26T20:07:37.333Z,101453.95
2018-12-26T20:10:12.941Z,101448.31
2018-12-26T20:12:47.554Z,101448.83
2018-12-26T20:15:23.995Z,101444.72
2018-12-26T20:17:57.999Z,101445.77
2018-12-26T20:20:33.073Z,101441.66
2018-12-26T20:23:06.453Z,101435.55
2018-12-26T20:25:39.352Z,101432.69
2018-12-26T20:28:13.337Z,101427.59
2018-12-26T20:30:51.988Z,101429.95
2018-12-26T20:33:25.474Z,101432.34
2018-12-26T20:35:59.583Z,101436.63
2018-12-26T20:38:38.402Z,101441.92
2018-12-26T20:41:12.347Z,101438.03
2018-12-26T20:43:48.511Z,101437.61
2018-12-26T20:46:25.677Z,101438.87
2018-12-26T20:48:59.592Z,101437.97
2018-12-26T20:51:34.808Z,101438.45
2018-12-26T20:54:07.866Z,101441.23
2018-12-26T20:56:42.357Z,101439.36
2018-12-26T20:59:17.447Z,101438.51
2018-12-26T21:01:50.490Z,101435.02
2018-12-26T21:04:25.177Z,101433.17
2018-12-26T21:07:02.172Z,101427.57
2018-12-26T21:09:35.673Z,101430.22
2018-12-26T21:12:12.594Z,101431.69
2018-12-26T21:14:46.146Z,101426.67
2018-12-26T21:17:26.969Z,101428.84
2018-12-26T21:20:03.666Z,101425.68
2018-12-26T21:22:37.818Z,101422.91
2018-12-26T21:25:15.528Z,101416.83
2018-12-26T21:27:53.514Z,101412.02
2018-12-26T21:30:29.257Z,101408.83
2018-12-26T21:33:07.350Z,101403.52
2018-12-26T21:35:42.393Z,101400.40
2018-12-26T21:38:19.496Z,101401.94
2018-12-26T21:40:57.857Z,101402.38
2018-12-26T21:43:33.680Z,101401.34
2018-12-26T21:46:08.302Z,101395.50
2018-12-26T21:48:43.562Z,101396.02
2018-12-26T21:51:20.649Z,101401.12
2018-12-26T21:53:57.595Z,101399.18
2018-12-26T21:56:31.811Z,101396.66
2018-12-26T21:59:13.306Z,101398.42
2018-12-26T22:01:47.356Z,101397.16
2018-12-26T22:04:21.390Z,101389.39
2018-12-26T22:06:59.096Z,101387.41
2018-12-26T22:09:33.060Z,101375.56
2018-12-26T22:12:06.742Z,101382.94
2018-12-26T22:14:42.197Z,101384.70
2018-12-26T22:17:15.407Z,101385.52
2018-12-26T22:19:49.011Z,101382.86
2018-12-26T22:22:22.945Z,101376.84
2018-12-26T22:24:57.623Z,101371.84
2018-12-26T22:27:31.077Z,101372.16
2018-12-26T22:30:09.510Z,101365.00
2018-12-26T22:32:45.250Z,101359.35
2018-12-26T22:35:21.423Z,101363.98
2018-12-26T22:37:56.800Z,101358.23
2018-12-26T22:40:31.966Z,101356.59
2018-12-26T22:43:07.515Z,101351.92
2018-12-26T22:45:44.082Z,101346.41
2018-12-26T22:48:18.719Z,101342.68
2018-12-26T22:50:54.416Z,101345.80
2018-12-26T22:53:28.430Z,101346.20
2018-12-26T22:56:01.777Z,101348.05
2018-12-26T22:58:35.294Z,101345.77
2018-12-26T23:01:13.652Z,101342.67
2018-12-26T23:03:47.439Z,101341.71
2018-12-26T23:06:23.187Z,101344.72
2018-12-26T23:08:56.120Z,101344.97
2018-12-26T23:11:29.410Z,101345.66
2018-12-26T23:14:03.778Z,101346.23
2018-12-26T23:16:36.835Z,101344.64
2018-12-26T23:19:13.406Z,101345.41
2018-12-26T23:21:49.352Z,101336.22
2018-12-26T23:24:23.053Z,101335.66
2018-12-26T23:26:56.796Z,101336.28
2018-12-26T23:29:31.233Z,101336.01
2018-12-26T23:32:04.185Z,101335.08
2018-12-26T23:34:38.584Z,101330.34
2018-12-26T23:37:12.837Z,101330.44
2018-12-26T23:39:48.638Z,101336.60
2018-12-26T23:42:23.381Z,101340.36
2018-12-26T23:44:57.432Z,101340.88
2018-12-26T23:47:31.492Z,101341.69
2018-12-26T23:50:05.519Z,101345.65
2018-12-26T23:52:41.632Z,101348.11
2018-12-26T23:55:16.756Z,101341.81
2018-12-26T23:58:01.193Z,101338.98
